View Sortable Currents For Network
ASOSAWOSCoCoRaHSCOOPDCPISUSM
SchoolNetOtherSCANMy FavoritesBy StateRWIS
RWIS SurfaceRWIS TrafficRWIS SoilBy NWS WFOUSCRN

Current AWOS Conditions

** This page will automatically refresh every five minutes.
Sorted by: (Ob Time)     Click on a column to sort it.

Add ID: Name: Ob Time   Wind [knots]   Rainfall
Temp (Hi / Lo) DewP Feels RH% Dir Speed Peak Gust
@ Time
Alti Vsby Hour Today
OLZOELWEIN06:35 AM 32(39/32) 28 50 915 @ 05:55 AM 30.26 10 0
OXVKnoxville06:35 AM 41(45/41) 41 36 100 30 7G1214 @ 12:15 AM 30.2 6 0
RDKRED OAK06:35 AM 41(46/41) 41 35 100 10 8G1319 @ 12:55 AM 30.25 6 0
SHLSHELDON06:35 AM 32(37/30) 32 340 610 @ 05:15 AM 30.31 10 0
MUTMUSCATINE06:35 AM 34(45/34) 28 25 78 40 1122 @ 02:35 AM 30.23 10 0
BNWBOONE MUNI06:35 AM 32(43/32) 32 10 912 @ 04:55 AM 30.23 10 0
ICLCLARINDA06:35 AM 43(46/43) 41 37 93 10 914 @ 01:15 AM 30.25 10 0
FSWFORT MADISON06:35 AM 37(46/37) 34 28 89 30 12G1718 @ 02:35 AM 30.18 10 0
LRJLE MARS06:35 AM 34(39/34) 34 26 100 10 1012 @ 12:55 AM 30.32 10 0
SLBStorm Lake06:35 AM 32(39/32) 32 10 915 @ 02:35 AM 30.26 10 0
CBFCOUNCIL BLUFFS06:35 AM 37(45/37) 37 30 100 350 815 @ 05:15 AM 30.26 10 0
CINCARROLL06:35 AM 36(43/34) 36 30 100 350 612 @ 02:55 AM 30.27 10 0
EBSWebster City06:35 AM 34(39/32) 34 27 100 20 79 @ 01:15 AM 30.24 10 0
AWGWASHINGTON06:35 AM 34(45/34) 32 40 1217 @ 04:15 AM 30.22 10 0
HPTHampton06:35 AM 34(37/32) 30 28 85 40 68 @ 04:55 AM 30.26 10 0
AIOATLANTIC06:35 AM 37(45/37) 37 29 100 30 1014 @ 05:15 AM 30.24 10 0
FFLFAIRFIELD06:35 AM 36(45/36) 32 40 1422 @ 03:35 AM 30.19 10 0
ADUAUDUBON06:35 AM 34(43/34) 30 85 0 00 @ 06:00 PM 30.26 10 0
CSQCRESTON06:35 AM 39(45/39) 39 31 100 20 1121 @ 12:55 AM 30.21 10 0
FXYForest City06:35 AM 34(36/34) 32 30 59 @ 01:35 AM 30.28 10 0
CKPCherokee06:35 AM 32(40/32) 30 360 510 @ 12:35 AM 30.31 10 0
DNSDENISON06:35 AM 34(43/34) 34 30 100 10 419 @ 03:15 AM 30.29 10 0
I75Osceola06:35 AM 43(46/43) 41 39 93 10 69 @ 12:15 AM 30.21 7 0
HNRHARLAN06:35 AM 34(43/34) 34 27 100 10 717 @ 03:15 AM 30.26 10 0
IFAIowa Falls06:35 AM 35(43/34) 33 28 92 20 711 @ 01:35 AM 30.26 10 0
GGIGrinnell06:35 AM 35(43/35) 33 26 92 60 1114 @ 05:55 AM 30.23 10 0
PROPerry06:35 AM 34(44/34) 33 27 96 10 810 @ 05:35 AM 30.25 10 0
OOAOskaloosa06:35 AM 38(44/38) 36 31 92 40 1016 @ 04:55 AM 30.21 7 0
TVKCenterville06:35 AM 41(46/41) 41 35 100 40 921 @ 04:35 AM 30.2 8 0
PEAPELLA06:35 AM 41(45/41) 38 35 89 40 815 @ 12:15 AM 30.22 7 0
VTIVINTON06:35 AM 33(40/33) 28 27 82 50 616 @ 03:15 AM 30.25 10 0
EOKKEOKUK MUNI06:35 AM 39(46/39) 36 33 89 20 721 @ 02:55 AM 30.16 10 0
AXAALGONA06:35 AM 32(37/32) 32 30 1114 @ 12:15 AM 30.27 10 0
IKVANKENY06:35 AM 34(45/34) 34 29 100 10 511 @ 03:55 AM 30.25 10 0
SDASHENANDOAH MUNI06:35 AM 43(46/43) 43 39 100 10 516 @ 05:35 AM 30.24 8 0
CNCCHARITON06:35 AM 41(45/41) 41 36 100 20 716 @ 03:35 AM 30.2 5 0 0.0001
DEHDECORAH06:35 AM 32(37/32) 25 60 613 @ 02:15 AM 30.27 10 0
IIBINDEPENDENCE06:35 AM 33(41/33) 30 25 89 50 811 @ 03:55 AM 30.25 10 0
CAVCLARION06:35 AM 34(37/32) 32 30 88 @ 12:55 AM 30.27 10 0
TNUNEWTON MUNI06:35 AM 39(45/39) 39 32 100 40 10G1515 @ 06:15 AM 30.22 10 0
CWICLINTON05:56 AM 31(37/31) 27 20 85 40 1319 @ 12:40 AM 30.22 10 0
FODFORT DODGE05:56 AM 34(40/34) 31 26 89 20 910 @ 01:35 AM 30.26 10 0
CCYCHARLES CITY25 Mar 04:55 AM 34(36/34) 27 25 75 70 1212 @ 04:55 AM 30.26 10 0
MPZMOUNT PLEASANT 24 Mar 03:15 AMSite is Offline